createdAt,value
2022-10-28T00:01:31.387Z,11.89
2022-10-28T00:06:37.707Z,11.90
2022-10-28T00:11:41.482Z,11.55
2022-10-28T00:16:45.054Z,11.95
2022-10-28T00:21:49.016Z,11.78
2022-10-28T00:26:52.675Z,11.29
2022-10-28T00:31:56.879Z,11.31
2022-10-28T00:37:00.569Z,11.54
2022-10-28T00:42:04.962Z,11.71
2022-10-28T00:47:56.772Z,11.90
2022-10-28T00:53:05.379Z,11.26
2022-10-28T00:58:11.386Z,11.52
2022-10-28T01:03:16.060Z,11.66
2022-10-28T01:08:20.429Z,11.73
2022-10-28T01:13:53.321Z,11.39
2022-10-28T01:19:09.269Z,11.54
2022-10-28T01:24:36.734Z,11.56
2022-10-28T01:30:00.749Z,11.67
2022-10-28T01:35:19.975Z,11.34
2022-10-28T01:40:33.175Z,11.14
2022-10-28T01:46:06.270Z,11.67
2022-10-28T01:51:27.248Z,11.19
2022-10-28T01:56:37.882Z,10.99
2022-10-28T02:01:41.853Z,11.35
2022-10-28T02:06:49.085Z,10.60
2022-10-28T02:12:19.711Z,11.33
2022-10-28T02:17:37.518Z,11.19
2022-10-28T02:22:55.780Z,11.13
2022-10-28T02:28:08.626Z,11.21
2022-10-28T02:33:15.860Z,11.17
2022-10-28T02:38:26.386Z,11.14
2022-10-28T02:43:32.784Z,11.32
2022-10-28T02:48:48.642Z,11.21
2022-10-28T02:54:02.859Z,11.09
2022-10-28T02:59:12.551Z,10.80
2022-10-28T03:04:16.243Z,10.19
2022-10-28T03:09:19.822Z,10.45
2022-10-28T03:14:27.888Z,11.26
2022-10-28T03:19:31.582Z,9.62
2022-10-28T03:24:35.152Z,10.76
2022-10-28T03:29:43.340Z,9.74
2022-10-28T03:34:49.518Z,10.61
2022-10-28T03:39:53.103Z,9.69
2022-10-28T03:44:56.505Z,9.79
2022-10-28T03:50:00.148Z,10.28
2022-10-28T03:55:03.927Z,9.80
2022-10-28T04:00:08.140Z,10.57
2022-10-28T04:05:11.826Z,10.65
2022-10-28T04:10:15.949Z,10.27
2022-10-28T04:15:19.819Z,9.80
2022-10-28T04:20:24.122Z,9.26
2022-10-28T04:25:31.078Z,10.40
2022-10-28T04:30:34.579Z,9.82
2022-10-28T04:35:40.275Z,9.81
2022-10-28T04:40:44.137Z,9.05
2022-10-28T04:45:48.435Z,9.61
2022-10-28T04:50:52.233Z,9.92
2022-10-28T04:56:00.035Z,10.34
2022-10-28T05:01:10.650Z,9.67
2022-10-28T05:06:14.590Z,10.30
2022-10-28T05:11:18.101Z,9.51
2022-10-28T05:16:21.771Z,10.20
2022-10-28T05:21:28.198Z,10.32
2022-10-28T05:26:31.642Z,9.63
2022-10-28T05:31:35.046Z,9.89
2022-10-28T05:36:39.450Z,10.26
2022-10-28T05:41:42.865Z,10.29
2022-10-28T05:46:47.018Z,10.22
2022-10-28T05:51:50.422Z,9.56
2022-10-28T05:56:53.970Z,10.51
2022-10-28T06:01:57.530Z,9.16
2022-10-28T06:07:01.170Z,9.85
2022-10-28T06:12:04.925Z,9.79
2022-10-28T06:17:08.428Z,9.10
2022-10-28T06:22:12.058Z,9.88
2022-10-28T06:27:15.515Z,9.33
2022-10-28T06:32:18.944Z,10.54
2022-10-28T06:37:22.361Z,10.65
2022-10-28T06:42:26.017Z,10.84
2022-10-28T06:47:30.941Z,10.92
2022-10-28T06:52:35.172Z,10.65
2022-10-28T06:57:38.789Z,10.97
2022-10-28T07:02:53.298Z,11.20
2022-10-28T07:08:02.408Z,11.75
2022-10-28T07:13:05.800Z,11.08
2022-10-28T07:18:09.790Z,11.75
2022-10-28T07:23:13.318Z,11.66
2022-10-28T07:28:17.166Z,11.95
2022-10-28T07:33:21.321Z,12.99
2022-10-28T07:38:25.133Z,13.33
2022-10-28T07:43:28.815Z,13.24
2022-10-28T07:48:32.480Z,13.95
2022-10-28T07:53:36.772Z,13.29
2022-10-28T07:58:40.812Z,14.18
2022-10-28T08:03:45.083Z,14.22
2022-10-28T08:08:57.217Z,14.76
2022-10-28T08:14:03.275Z,15.00
2022-10-28T08:19:07.869Z,14.58
2022-10-28T08:24:16.743Z,14.81
2022-10-28T08:29:20.324Z,14.46
2022-10-28T08:34:23.733Z,15.72
2022-10-28T08:39:27.174Z,16.18
2022-10-28T08:44:54.007Z,16.27
2022-10-28T08:50:02.535Z,15.91
2022-10-28T08:55:27.017Z,16.85
2022-10-28T09:00:33.585Z,17.15
2022-10-28T09:05:38.877Z,17.16
2022-10-28T09:11:00.897Z,18.18
2022-10-28T09:16:29.074Z,19.43
2022-10-28T09:22:04.936Z,20.36
2022-10-28T09:27:44.085Z,20.74
2022-10-28T09:33:08.850Z,20.33
2022-10-28T09:38:38.791Z,19.71
2022-10-28T09:44:00.223Z,19.87
2022-10-28T09:49:07.242Z,20.55
2022-10-28T09:59:40.112Z,21.26
2022-10-28T10:04:43.608Z,21.43
2022-10-28T10:09:47.241Z,21.24
2022-10-28T10:14:54.763Z,21.83
2022-10-28T10:20:14.656Z,22.41
2022-10-28T10:25:20.972Z,22.62
2022-10-28T10:30:52.424Z,22.82
2022-10-28T10:36:11.348Z,22.77
2022-10-28T10:41:34.183Z,22.94
2022-10-28T10:46:37.597Z,23.10
2022-10-28T10:52:03.492Z,22.86
2022-10-28T10:57:23.183Z,23.08
2022-10-28T11:02:36.749Z,22.71
2022-10-28T11:07:49.036Z,22.88
2022-10-28T11:13:24.167Z,22.96
2022-10-28T11:18:30.042Z,22.87
2022-10-28T11:23:42.258Z,22.49
2022-10-28T11:28:56.662Z,22.93
2022-10-28T11:34:37.249Z,23.35
2022-10-28T11:40:18.108Z,23.45
2022-10-28T11:45:39.779Z,23.46
2022-10-28T11:50:52.038Z,23.31
2022-10-28T11:56:10.801Z,23.36
2022-10-28T12:01:36.168Z,23.26
2022-10-28T12:07:21.272Z,23.21
2022-10-28T12:12:38.434Z,22.90
2022-10-28T12:18:12.183Z,22.99
2022-10-28T12:23:20.526Z,23.18
2022-10-28T12:28:29.308Z,22.91
2022-10-28T12:33:45.371Z,22.69
2022-10-28T12:39:05.292Z,22.55
2022-10-28T12:44:16.827Z,22.58
2022-10-28T12:49:38.123Z,22.48
2022-10-28T12:55:08.216Z,23.17
2022-10-28T13:00:28.948Z,22.99
2022-10-28T13:05:39.165Z,22.41
2022-10-28T13:11:20.247Z,22.89
2022-10-28T13:16:54.307Z,23.01
2022-10-28T13:22:03.523Z,23.00
2022-10-28T13:27:13.115Z,22.93
2022-10-28T13:32:38.654Z,22.69
2022-10-28T13:37:46.981Z,22.38
2022-10-28T13:42:51.437Z,22.52
2022-10-28T13:48:30.350Z,21.40
2022-10-28T13:53:38.646Z,22.31
2022-10-28T13:59:02.860Z,22.26
2022-10-28T14:04:07.540Z,22.17
2022-10-28T14:09:24.768Z,22.02
2022-10-28T14:14:28.879Z,22.25
2022-10-28T14:19:32.613Z,21.26
2022-10-28T14:24:41.442Z,21.36
2022-10-28T14:29:48.019Z,22.20
2022-10-28T14:34:51.836Z,21.78
2022-10-28T14:40:14.401Z,22.16
2022-10-28T14:45:38.072Z,21.98
2022-10-28T14:50:47.770Z,21.62
2022-10-28T14:55:59.607Z,20.62
2022-10-28T15:01:19.614Z,21.49
2022-10-28T15:06:33.054Z,20.87
2022-10-28T15:11:38.367Z,20.84
2022-10-28T15:16:49.770Z,20.70
2022-10-28T15:22:03.511Z,19.87
2022-10-28T15:27:17.409Z,19.43
2022-10-28T15:32:20.889Z,18.98
2022-10-28T15:37:28.779Z,18.92
2022-10-28T15:42:50.135Z,18.70
2022-10-28T15:47:55.006Z,18.10
2022-10-28T15:53:08.025Z,17.11
2022-10-28T15:58:16.456Z,16.31
2022-10-28T16:03:26.749Z,15.82
2022-10-28T16:08:32.173Z,15.78
2022-10-28T16:13:48.069Z,15.82
2022-10-28T16:18:58.183Z,13.96
2022-10-28T16:24:01.700Z,14.94
2022-10-28T16:29:06.981Z,13.78
2022-10-28T16:34:15.875Z,13.06
2022-10-28T16:39:19.576Z,12.75
2022-10-28T16:44:26.671Z,13.85
2022-10-28T16:49:30.273Z,13.98
2022-10-28T16:54:33.725Z,12.45
2022-10-28T16:59:37.431Z,13.33
2022-10-28T17:04:41.154Z,12.61
2022-10-28T17:09:46.396Z,12.32
2022-10-28T17:14:51.308Z,12.55
2022-10-28T17:37:28.621Z,12.10
2022-10-28T17:42:32.216Z,11.67
2022-10-28T17:47:36.423Z,11.35
2022-10-28T17:52:40.167Z,11.60
2022-10-28T17:57:45.708Z,12.32
2022-10-28T18:02:49.461Z,12.82
2022-10-28T18:07:57.617Z,12.80
2022-10-28T18:13:06.868Z,11.37
2022-10-28T18:34:01.466Z,12.35
2022-10-28T18:39:11.131Z,12.35
2022-10-28T18:44:18.486Z,11.71
2022-10-28T18:49:22.122Z,11.93
2022-10-28T18:54:25.626Z,11.43
2022-10-28T18:59:29.231Z,10.60
2022-10-28T19:04:33.393Z,11.19
2022-10-28T19:09:37.042Z,10.94
2022-10-28T19:14:40.603Z,11.32
2022-10-28T19:19:44.201Z,11.81
2022-10-28T19:24:48.033Z,10.63
2022-10-28T19:29:51.731Z,11.20
2022-10-28T19:34:55.177Z,11.17
2022-10-28T19:39:58.649Z,11.32
2022-10-28T19:45:04.829Z,10.54
2022-10-28T19:50:09.112Z,11.43
2022-10-28T19:55:15.021Z,11.26
2022-10-28T20:00:28.786Z,10.72
2022-10-28T20:05:42.402Z,10.38
2022-10-28T20:10:47.516Z,12.08
2022-10-28T20:15:51.020Z,10.73
2022-10-28T20:21:11.625Z,11.44
2022-10-28T20:26:15.189Z,10.43
2022-10-28T20:31:21.950Z,10.66
2022-10-28T20:36:35.670Z,11.54
2022-10-28T20:41:40.406Z,10.94
2022-10-28T20:46:45.801Z,9.71
2022-10-28T20:51:50.681Z,10.02
2022-10-28T20:56:54.297Z,10.02
2022-10-28T21:01:59.689Z,9.90
2022-10-28T21:07:03.201Z,10.75
2022-10-28T21:12:06.829Z,10.27
2022-10-28T21:17:10.283Z,10.50
2022-10-28T21:22:16.488Z,9.81
2022-10-28T21:27:31.186Z,10.92
2022-10-28T21:32:38.242Z,9.78
2022-10-28T21:37:41.799Z,10.15
2022-10-28T21:42:49.319Z,10.15
2022-10-28T21:47:57.043Z,10.13
2022-10-28T21:53:04.695Z,10.02
2022-10-28T21:58:08.368Z,9.80
2022-10-28T22:03:14.188Z,9.70
2022-10-28T22:08:18.658Z,10.54
2022-10-28T22:13:22.177Z,9.94
2022-10-28T22:18:26.396Z,10.12
2022-10-28T22:23:30.052Z,10.23
2022-10-28T22:28:34.006Z,9.69
2022-10-28T22:33:37.970Z,10.00
2022-10-28T22:38:42.456Z,10.13
2022-10-28T22:43:49.517Z,9.35
2022-10-28T22:48:54.047Z,10.61
2022-10-28T22:53:57.919Z,10.47
2022-10-28T22:59:02.797Z,9.67
2022-10-28T23:04:10.344Z,10.58
2022-10-28T23:09:13.967Z,9.42
2022-10-28T23:14:17.499Z,9.32
2022-10-28T23:19:21.163Z,9.70
2022-10-28T23:24:25.169Z,9.01
2022-10-28T23:29:28.925Z,9.93
2022-10-28T23:34:32.706Z,8.67
2022-10-28T23:39:36.323Z,9.43
2022-10-28T23:44:40.086Z,10.18
2022-10-28T23:49:43.896Z,10.10
2022-10-28T23:54:47.537Z,9.40
2022-10-28T23:59:51.259Z,8.89
